Collegeville, MN (56321)

8:23 AM CST on November 22, 2014 (GMT -0600)
Saint Johns University Campus | Change Station
CLOSE
Current Station
Personal Weather Station
Location: Collegeville, MN
Elevation: 1200 ft
Nearby Weather Stations

Elev 1200 ft 45.58 °N, 94.39 °W | Updated 4 minutes ago

Partly Cloudy
Partly Cloudy
28.3 °F
Feels Like 28 °F
N
3.0
Wind Variable Wind from SSW
Gusts 7.0 mph

Today
High -- | Low -- °F
--% Chance of Precip.
Yesterday
High -- | Low -- °F
Precip. -- in
7:26 AM 4:40 PM
New Moon, 0% visible
Pressure 29.79 in
Visibility 1.5 miles
Clouds Clear
Windchill 28 °F
Dew Point 27 °F
Humidity 94%
Rainfall 0.00 in
Snow Depth Not available.
UV 0.0 out of 12
Pollen .10 out of 12
Air Quality Not available.
Flu Activity Not available.
METAR KSTC 221353Z 16005KT 1 1/2SM BR CLR M04/M06 A2973 RMK AO2 SLP088 I1000 T10391056

More Conditions Fewer Conditions

Pressure 29.79 in
Visibility 1.5 miles
Clouds Clear
Windchill 28 °F
Dew Point 27 °F
Humidity 94%
Rainfall 0.00 in
Snow Depth Not available.
UV 0.0 out of 12
Pollen .10 out of 12
Air Quality Not available.
Flu Activity Not available.
METAR KSTC 221353Z 16005KT 1 1/2SM BR CLR M04/M06 A2973 RMK AO2 SLP088 I1000 T10391056

More Conditions Fewer Conditions

10-Day Weather Forecast

Almanac

Astronomy

Nov. 22, 2014 Rise Set
Actual Time
Civil Twilight
Nautical Twilight
Astronomical Twilight
Moon
Length of Visible Light
Length of Day
Tomorrow will be .
, % of the Moon is Illuminated

Today's Extremes

State Highs State Lows

Community

WunderPhotos

Upload Photos

1,772,820 photos uploaded!

WunderBlogs® & News

Nearby

Air Quality

  Air Quality AQ Index Pollutant
Not available.

Snow Depth

Station Depth Elevation

Earthquake Activity

City Distance Mag. Time & Date
Minimum magnitude displayed is 2.5.

Coastal Water Temperatures

Place Temperature

Nearby Weather Stations